sensor_id;sensor_type;location;lat;lon;timestamp;temperature;humidity
36444;DHT22;24692;45.642;13.806;2023-09-18T00:00:51;20.50;99.90
36444;DHT22;24692;45.642;13.806;2023-09-18T00:03:17;20.50;99.90
36444;DHT22;24692;45.642;13.806;2023-09-18T00:05:45;20.40;99.90
36444;DHT22;24692;45.642;13.806;2023-09-18T00:08:11;20.40;99.90
36444;DHT22;24692;45.642;13.806;2023-09-18T00:10:37;20.30;99.90
36444;DHT22;24692;45.642;13.806;2023-09-18T00:13:03;20.40;99.90
36444;DHT22;24692;45.642;13.806;2023-09-18T00:15:28;20.40;99.90
36444;DHT22;24692;45.642;13.806;2023-09-18T00:17:54;20.30;99.90
36444;DHT22;24692;45.642;13.806;2023-09-18T00:20:20;20.30;99.90
36444;DHT22;24692;45.642;13.806;2023-09-18T00:22:54;20.30;99.90
36444;DHT22;24692;45.642;13.806;2023-09-18T00:25:21;20.40;99.90
36444;DHT22;24692;45.642;13.806;2023-09-18T00:27:47;20.50;99.90
36444;DHT22;24692;45.642;13.806;2023-09-18T00:30:13;20.50;99.90
36444;DHT22;24692;45.642;13.806;2023-09-18T00:32:38;20.50;99.90
36444;DHT22;24692;45.642;13.806;2023-09-18T00:35:04;20.60;99.90
36444;DHT22;24692;45.642;13.806;2023-09-18T00:37:30;20.60;99.90
36444;DHT22;24692;45.642;13.806;2023-09-18T00:39:56;20.80;99.90
36444;DHT22;24692;45.642;13.806;2023-09-18T00:42:21;20.90;99.90
36444;DHT22;24692;45.642;13.806;2023-09-18T00:44:48;20.90;99.90
36444;DHT22;24692;45.642;13.806;2023-09-18T00:47:15;20.90;99.90
36444;DHT22;24692;45.642;13.806;2023-09-18T00:49:43;21.00;99.90
36444;DHT22;24692;45.642;13.806;2023-09-18T00:52:10;21.00;99.90
36444;DHT22;24692;45.642;13.806;2023-09-18T00:54:38;21.10;99.90
36444;DHT22;24692;45.642;13.806;2023-09-18T00:57:04;21.10;99.90
36444;DHT22;24692;45.642;13.806;2023-09-18T00:59:31;21.10;99.90
36444;DHT22;24692;45.642;13.806;2023-09-18T01:01:57;21.10;99.90
36444;DHT22;24692;45.642;13.806;2023-09-18T01:04:23;21.20;99.90
36444;DHT22;24692;45.642;13.806;2023-09-18T01:06:51;21.10;99.90
36444;DHT22;24692;45.642;13.806;2023-09-18T01:09:18;21.10;99.90
36444;DHT22;24692;45.642;13.806;2023-09-18T01:14:44;21.20;99.90
36444;DHT22;24692;45.642;13.806;2023-09-18T01:17:14;21.20;99.90
36444;DHT22;24692;45.642;13.806;2023-09-18T01:19:45;21.20;99.90
36444;DHT22;24692;45.642;13.806;2023-09-18T01:22:13;21.20;99.90
36444;DHT22;24692;45.642;13.806;2023-09-18T01:24:39;21.20;99.90
36444;DHT22;24692;45.642;13.806;2023-09-18T01:27:09;21.20;99.90
36444;DHT22;24692;45.642;13.806;2023-09-18T01:29:35;21.20;99.90
36444;DHT22;24692;45.642;13.806;2023-09-18T01:32:01;21.20;99.90
36444;DHT22;24692;45.642;13.806;2023-09-18T01:34:37;21.10;99.90
36444;DHT22;24692;45.642;13.806;2023-09-18T01:37:06;21.10;99.90
36444;DHT22;24692;45.642;13.806;2023-09-18T01:39:35;21.10;99.90
36444;DHT22;24692;45.642;13.806;2023-09-18T01:42:02;21.10;99.90
36444;DHT22;24692;45.642;13.806;2023-09-18T01:44:35;21.10;99.90
36444;DHT22;24692;45.642;13.806;2023-09-18T01:47:13;21.00;99.90
36444;DHT22;24692;45.642;13.806;2023-09-18T01:49:40;21.10;99.90
36444;DHT22;24692;45.642;13.806;2023-09-18T01:52:07;21.10;99.90
36444;DHT22;24692;45.642;13.806;2023-09-18T01:54:34;21.20;99.90
36444;DHT22;24692;45.642;13.806;2023-09-18T01:57:00;21.10;99.90
36444;DHT22;24692;45.642;13.806;2023-09-18T01:59:26;21.10;99.90
36444;DHT22;24692;45.642;13.806;2023-09-18T02:01:53;21.10;99.90
36444;DHT22;24692;45.642;13.806;2023-09-18T02:04:22;21.10;99.90
36444;DHT22;24692;45.642;13.806;2023-09-18T02:06:49;21.10;99.90
36444;DHT22;24692;45.642;13.806;2023-09-18T02:09:15;21.10;99.90
36444;DHT22;24692;45.642;13.806;2023-09-18T02:11:43;21.20;99.90
36444;DHT22;24692;45.642;13.806;2023-09-18T02:14:09;21.10;99.90
36444;DHT22;24692;45.642;13.806;2023-09-18T02:16:37;21.20;99.90
36444;DHT22;24692;45.642;13.806;2023-09-18T02:19:03;21.10;99.90
36444;DHT22;24692;45.642;13.806;2023-09-18T02:21:29;21.10;99.90
36444;DHT22;24692;45.642;13.806;2023-09-18T02:23:55;21.10;99.90
36444;DHT22;24692;45.642;13.806;2023-09-18T02:26:22;21.20;99.90
36444;DHT22;24692;45.642;13.806;2023-09-18T02:28:49;21.20;99.90
36444;DHT22;24692;45.642;13.806;2023-09-18T02:31:15;21.20;99.90
36444;DHT22;24692;45.642;13.806;2023-09-18T02:33:42;21.20;99.90
36444;DHT22;24692;45.642;13.806;2023-09-18T02:36:08;21.20;99.90
36444;DHT22;24692;45.642;13.806;2023-09-18T02:38:34;21.20;99.90
36444;DHT22;24692;45.642;13.806;2023-09-18T02:41:00;21.20;99.90
36444;DHT22;24692;45.642;13.806;2023-09-18T02:43:26;21.20;99.90
36444;DHT22;24692;45.642;13.806;2023-09-18T02:45:52;21.20;99.90
36444;DHT22;24692;45.642;13.806;2023-09-18T02:48:18;21.10;99.90
36444;DHT22;24692;45.642;13.806;2023-09-18T02:50:44;21.10;99.90
36444;DHT22;24692;45.642;13.806;2023-09-18T02:53:23;21.00;99.90
36444;DHT22;24692;45.642;13.806;2023-09-18T02:55:53;21.00;99.90
36444;DHT22;24692;45.642;13.806;2023-09-18T02:58:20;21.00;99.90
36444;DHT22;24692;45.642;13.806;2023-09-18T03:00:48;20.90;99.90
36444;DHT22;24692;45.642;13.806;2023-09-18T03:03:15;20.80;99.90
36444;DHT22;24692;45.642;13.806;2023-09-18T03:05:41;20.80;99.90
36444;DHT22;24692;45.642;13.806;2023-09-18T03:08:07;20.80;99.90
36444;DHT22;24692;45.642;13.806;2023-09-18T03:10:39;20.80;99.90
36444;DHT22;24692;45.642;13.806;2023-09-18T03:13:08;20.70;99.90
36444;DHT22;24692;45.642;13.806;2023-09-18T03:15:35;20.60;99.90
36444;DHT22;24692;45.642;13.806;2023-09-18T03:18:01;20.60;99.90
36444;DHT22;24692;45.642;13.806;2023-09-18T03:20:28;20.60;99.90
36444;DHT22;24692;45.642;13.806;2023-09-18T03:22:56;20.60;99.90
36444;DHT22;24692;45.642;13.806;2023-09-18T03:25:22;20.70;99.90
36444;DHT22;24692;45.642;13.806;2023-09-18T03:27:50;20.70;99.90
36444;DHT22;24692;45.642;13.806;2023-09-18T03:30:16;20.80;99.90
36444;DHT22;24692;45.642;13.806;2023-09-18T03:32:42;20.80;99.90
36444;DHT22;24692;45.642;13.806;2023-09-18T03:35:09;20.70;99.90
36444;DHT22;24692;45.642;13.806;2023-09-18T03:37:46;20.70;99.90
36444;DHT22;24692;45.642;13.806;2023-09-18T03:40:12;20.70;99.90
36444;DHT22;24692;45.642;13.806;2023-09-18T03:42:38;20.70;99.90
36444;DHT22;24692;45.642;13.806;2023-09-18T03:45:08;20.80;99.90
36444;DHT22;24692;45.642;13.806;2023-09-18T03:47:38;20.80;99.90
36444;DHT22;24692;45.642;13.806;2023-09-18T03:50:06;20.80;99.90
36444;DHT22;24692;45.642;13.806;2023-09-18T03:52:31;20.60;99.90
36444;DHT22;24692;45.642;13.806;2023-09-18T03:54:57;20.60;99.90
36444;DHT22;24692;45.642;13.806;2023-09-18T03:57:23;20.60;99.90
36444;DHT22;24692;45.642;13.806;2023-09-18T03:59:49;20.50;99.90
36444;DHT22;24692;45.642;13.806;2023-09-18T04:02:14;20.50;99.90
36444;DHT22;24692;45.642;13.806;2023-09-18T04:04:40;20.50;99.90
36444;DHT22;24692;45.642;13.806;2023-09-18T04:07:06;20.50;99.90
36444;DHT22;24692;45.642;13.806;2023-09-18T04:09:32;20.50;99.90
36444;DHT22;24692;45.642;13.806;2023-09-18T04:12:03;20.40;99.90
36444;DHT22;24692;45.642;13.806;2023-09-18T04:14:31;20.30;99.90
36444;DHT22;24692;45.642;13.806;2023-09-18T04:16:56;20.30;99.90
36444;DHT22;24692;45.642;13.806;2023-09-18T04:19:22;20.30;99.90
36444;DHT22;24692;45.642;13.806;2023-09-18T04:21:48;20.30;99.90
36444;DHT22;24692;45.642;13.806;2023-09-18T04:24:14;20.30;99.90
36444;DHT22;24692;45.642;13.806;2023-09-18T04:26:39;20.30;99.90
36444;DHT22;24692;45.642;13.806;2023-09-18T04:29:05;20.30;99.90
36444;DHT22;24692;45.642;13.806;2023-09-18T04:31:31;20.30;99.90
36444;DHT22;24692;45.642;13.806;2023-09-18T04:33:57;20.40;99.90
36444;DHT22;24692;45.642;13.806;2023-09-18T04:36:23;20.30;99.90
36444;DHT22;24692;45.642;13.806;2023-09-18T04:38:50;20.30;99.90
36444;DHT22;24692;45.642;13.806;2023-09-18T04:41:16;20.40;99.90
36444;DHT22;24692;45.642;13.806;2023-09-18T04:43:42;20.40;99.90
36444;DHT22;24692;45.642;13.806;2023-09-18T04:46:10;20.50;99.90
36444;DHT22;24692;45.642;13.806;2023-09-18T04:48:36;20.50;99.90
36444;DHT22;24692;45.642;13.806;2023-09-18T04:51:03;20.50;99.90
36444;DHT22;24692;45.642;13.806;2023-09-18T04:53:30;20.50;99.90
36444;DHT22;24692;45.642;13.806;2023-09-18T04:55:56;20.50;99.90
36444;DHT22;24692;45.642;13.806;2023-09-18T04:58:22;20.50;99.90
36444;DHT22;24692;45.642;13.806;2023-09-18T05:00:57;20.60;99.90
36444;DHT22;24692;45.642;13.806;2023-09-18T05:03:24;20.60;99.90
36444;DHT22;24692;45.642;13.806;2023-09-18T05:05:50;20.70;99.90
36444;DHT22;24692;45.642;13.806;2023-09-18T05:08:16;20.80;99.90
36444;DHT22;24692;45.642;13.806;2023-09-18T05:10:41;20.90;99.90
36444;DHT22;24692;45.642;13.806;2023-09-18T05:13:09;21.00;99.90
36444;DHT22;24692;45.642;13.806;2023-09-18T05:15:35;21.00;99.90
36444;DHT22;24692;45.642;13.806;2023-09-18T05:18:01;21.10;99.90
36444;DHT22;24692;45.642;13.806;2023-09-18T05:20:28;21.10;99.90
36444;DHT22;24692;45.642;13.806;2023-09-18T05:22:56;21.20;99.90
36444;DHT22;24692;45.642;13.806;2023-09-18T05:25:29;21.30;99.90
36444;DHT22;24692;45.642;13.806;2023-09-18T05:27:58;21.40;99.90
36444;DHT22;24692;45.642;13.806;2023-09-18T05:30:29;21.50;99.90
36444;DHT22;24692;45.642;13.806;2023-09-18T05:32:58;21.50;99.90
36444;DHT22;24692;45.642;13.806;2023-09-18T05:35:42;21.60;99.90
36444;DHT22;24692;45.642;13.806;2023-09-18T05:38:09;21.60;99.90
36444;DHT22;24692;45.642;13.806;2023-09-18T05:40:36;21.70;99.90
36444;DHT22;24692;45.642;13.806;2023-09-18T05:43:02;21.70;99.90
36444;DHT22;24692;45.642;13.806;2023-09-18T05:45:28;21.80;99.90
36444;DHT22;24692;45.642;13.806;2023-09-18T05:47:54;21.70;99.90
36444;DHT22;24692;45.642;13.806;2023-09-18T05:50:27;21.60;99.90
36444;DHT22;24692;45.642;13.806;2023-09-18T05:52:55;21.60;99.90
36444;DHT22;24692;45.642;13.806;2023-09-18T05:55:25;21.60;99.90
36444;DHT22;24692;45.642;13.806;2023-09-18T05:57:50;21.50;99.90
36444;DHT22;24692;45.642;13.806;2023-09-18T06:00:17;21.50;99.90
36444;DHT22;24692;45.642;13.806;2023-09-18T06:02:43;21.60;99.90
36444;DHT22;24692;45.642;13.806;2023-09-18T06:05:10;21.60;99.90
36444;DHT22;24692;45.642;13.806;2023-09-18T06:07:41;21.60;99.90
36444;DHT22;24692;45.642;13.806;2023-09-18T06:10:07;21.70;99.90
36444;DHT22;24692;45.642;13.806;2023-09-18T06:12:33;21.80;99.90
36444;DHT22;24692;45.642;13.806;2023-09-18T06:14:59;22.00;99.90
36444;DHT22;24692;45.642;13.806;2023-09-18T06:17:24;22.30;99.90
36444;DHT22;24692;45.642;13.806;2023-09-18T06:19:50;22.70;99.90
36444;DHT22;24692;45.642;13.806;2023-09-18T06:22:16;23.20;99.90
36444;DHT22;24692;45.642;13.806;2023-09-18T06:24:42;23.60;99.90
36444;DHT22;24692;45.642;13.806;2023-09-18T06:27:08;23.80;99.90
36444;DHT22;24692;45.642;13.806;2023-09-18T06:29:34;24.10;99.90
36444;DHT22;24692;45.642;13.806;2023-09-18T06:32:04;24.60;99.90
36444;DHT22;24692;45.642;13.806;2023-09-18T06:34:30;24.90;99.90
36444;DHT22;24692;45.642;13.806;2023-09-18T06:36:55;25.10;99.90
36444;DHT22;24692;45.642;13.806;2023-09-18T06:39:21;25.20;99.90
36444;DHT22;24692;45.642;13.806;2023-09-18T06:41:51;25.30;99.90
36444;DHT22;24692;45.642;13.806;2023-09-18T06:44:18;25.30;99.90
36444;DHT22;24692;45.642;13.806;2023-09-18T06:46:44;25.40;99.90
36444;DHT22;24692;45.642;13.806;2023-09-18T06:49:12;25.10;99.90
36444;DHT22;24692;45.642;13.806;2023-09-18T06:51:40;25.30;99.90
36444;DHT22;24692;45.642;13.806;2023-09-18T06:54:06;25.30;99.90
36444;DHT22;24692;45.642;13.806;2023-09-18T06:56:32;25.70;99.90
36444;DHT22;24692;45.642;13.806;2023-09-18T06:58:58;26.00;99.90
36444;DHT22;24692;45.642;13.806;2023-09-18T07:01:23;26.10;99.90
36444;DHT22;24692;45.642;13.806;2023-09-18T07:03:51;26.00;99.90
36444;DHT22;24692;45.642;13.806;2023-09-18T07:06:17;25.70;99.90
36444;DHT22;24692;45.642;13.806;2023-09-18T07:08:46;25.40;99.90
36444;DHT22;24692;45.642;13.806;2023-09-18T07:11:19;25.40;99.90
36444;DHT22;24692;45.642;13.806;2023-09-18T07:13:45;25.10;99.90
36444;DHT22;24692;45.642;13.806;2023-09-18T07:16:11;25.10;99.90
36444;DHT22;24692;45.642;13.806;2023-09-18T07:18:37;25.00;99.90
36444;DHT22;24692;45.642;13.806;2023-09-18T07:21:03;24.90;99.90
36444;DHT22;24692;45.642;13.806;2023-09-18T07:23:29;25.00;99.90
36444;DHT22;24692;45.642;13.806;2023-09-18T07:25:54;25.10;99.90
36444;DHT22;24692;45.642;13.806;2023-09-18T07:28:20;25.10;99.90
36444;DHT22;24692;45.642;13.806;2023-09-18T07:30:46;25.20;99.90
36444;DHT22;24692;45.642;13.806;2023-09-18T07:33:13;25.10;99.90
36444;DHT22;24692;45.642;13.806;2023-09-18T07:35:41;25.40;99.90
36444;DHT22;24692;45.642;13.806;2023-09-18T07:38:07;25.60;99.90
36444;DHT22;24692;45.642;13.806;2023-09-18T07:40:33;25.80;99.90
36444;DHT22;24692;45.642;13.806;2023-09-18T07:42:59;26.10;99.90
36444;DHT22;24692;45.642;13.806;2023-09-18T07:45:24;26.30;99.90
36444;DHT22;24692;45.642;13.806;2023-09-18T07:47:50;26.40;99.90
36444;DHT22;24692;45.642;13.806;2023-09-18T07:50:16;26.50;99.90
36444;DHT22;24692;45.642;13.806;2023-09-18T07:52:44;26.60;99.90
36444;DHT22;24692;45.642;13.806;2023-09-18T07:55:10;26.60;99.90
36444;DHT22;24692;45.642;13.806;2023-09-18T07:57:37;26.90;99.90
36444;DHT22;24692;45.642;13.806;2023-09-18T08:00:04;26.90;99.90
36444;DHT22;24692;45.642;13.806;2023-09-18T08:02:38;27.10;99.90
36444;DHT22;24692;45.642;13.806;2023-09-18T08:05:04;26.80;99.90
36444;DHT22;24692;45.642;13.806;2023-09-18T08:07:30;26.90;99.90
36444;DHT22;24692;45.642;13.806;2023-09-18T08:09:56;26.60;99.90
36444;DHT22;24692;45.642;13.806;2023-09-18T08:12:23;26.80;99.90
36444;DHT22;24692;45.642;13.806;2023-09-18T08:14:49;26.80;99.90
36444;DHT22;24692;45.642;13.806;2023-09-18T08:17:15;26.90;99.90
36444;DHT22;24692;45.642;13.806;2023-09-18T08:19:41;27.30;99.90
36444;DHT22;24692;45.642;13.806;2023-09-18T08:22:09;27.40;99.90
36444;DHT22;24692;45.642;13.806;2023-09-18T08:24:37;27.20;99.90
36444;DHT22;24692;45.642;13.806;2023-09-18T08:27:03;27.00;99.90
36444;DHT22;24692;45.642;13.806;2023-09-18T08:29:29;27.10;99.90
36444;DHT22;24692;45.642;13.806;2023-09-18T08:31:54;27.20;99.90
36444;DHT22;24692;45.642;13.806;2023-09-18T08:34:20;27.10;99.90
36444;DHT22;24692;45.642;13.806;2023-09-18T08:36:47;27.10;99.90
36444;DHT22;24692;45.642;13.806;2023-09-18T08:39:13;26.90;99.90
36444;DHT22;24692;45.642;13.806;2023-09-18T08:41:42;26.60;99.90
36444;DHT22;24692;45.642;13.806;2023-09-18T08:44:09;26.30;99.90
36444;DHT22;24692;45.642;13.806;2023-09-18T08:46:37;26.20;99.90
36444;DHT22;24692;45.642;13.806;2023-09-18T08:49:04;26.20;99.90
36444;DHT22;24692;45.642;13.806;2023-09-18T08:51:30;26.30;99.90
36444;DHT22;24692;45.642;13.806;2023-09-18T08:53:57;26.50;99.90
36444;DHT22;24692;45.642;13.806;2023-09-18T08:56:23;26.40;99.90
36444;DHT22;24692;45.642;13.806;2023-09-18T08:58:50;26.40;99.90
36444;DHT22;24692;45.642;13.806;2023-09-18T09:01:17;26.40;99.90
36444;DHT22;24692;45.642;13.806;2023-09-18T09:03:43;26.40;99.90
36444;DHT22;24692;45.642;13.806;2023-09-18T09:06:11;26.30;99.90
36444;DHT22;24692;45.642;13.806;2023-09-18T09:08:37;26.10;99.90
36444;DHT22;24692;45.642;13.806;2023-09-18T09:11:03;26.00;99.90
36444;DHT22;24692;45.642;13.806;2023-09-18T09:13:29;25.90;99.90
36444;DHT22;24692;45.642;13.806;2023-09-18T09:15:57;26.00;99.90
36444;DHT22;24692;45.642;13.806;2023-09-18T09:18:24;26.10;99.90
36444;DHT22;24692;45.642;13.806;2023-09-18T09:20:58;26.20;99.90
36444;DHT22;24692;45.642;13.806;2023-09-18T09:23:44;26.30;99.90
36444;DHT22;24692;45.642;13.806;2023-09-18T09:26:14;26.40;99.90
36444;DHT22;24692;45.642;13.806;2023-09-18T09:28:42;26.50;99.90
36444;DHT22;24692;45.642;13.806;2023-09-18T09:31:09;26.80;99.90
36444;DHT22;24692;45.642;13.806;2023-09-18T09:33:36;27.00;99.90
36444;DHT22;24692;45.642;13.806;2023-09-18T09:36:05;27.10;99.90
36444;DHT22;24692;45.642;13.806;2023-09-18T09:38:33;27.40;99.90
36444;DHT22;24692;45.642;13.806;2023-09-18T09:41:01;27.50;99.90
36444;DHT22;24692;45.642;13.806;2023-09-18T09:43:31;27.50;99.90
36444;DHT22;24692;45.642;13.806;2023-09-18T09:46:02;27.30;99.90
36444;DHT22;24692;45.642;13.806;2023-09-18T09:48:29;27.00;99.90
36444;DHT22;24692;45.642;13.806;2023-09-18T09:50:59;26.80;99.90
36444;DHT22;24692;45.642;13.806;2023-09-18T09:53:45;26.40;99.90
36444;DHT22;24692;45.642;13.806;2023-09-18T09:56:16;26.40;99.90
36444;DHT22;24692;45.642;13.806;2023-09-18T09:59:01;26.50;99.90
36444;DHT22;24692;45.642;13.806;2023-09-18T10:01:34;26.50;99.90
36444;DHT22;24692;45.642;13.806;2023-09-18T10:04:19;26.20;99.90
36444;DHT22;24692;45.642;13.806;2023-09-18T10:06:52;26.00;99.90
36444;DHT22;24692;45.642;13.806;2023-09-18T10:09:20;26.00;99.90
36444;DHT22;24692;45.642;13.806;2023-09-18T10:11:51;26.00;99.90
36444;DHT22;24692;45.642;13.806;2023-09-18T10:14:26;25.90;99.90
36444;DHT22;24692;45.642;13.806;2023-09-18T10:16:56;25.90;99.90
36444;DHT22;24692;45.642;13.806;2023-09-18T10:19:49;26.00;99.90
36444;DHT22;24692;45.642;13.806;2023-09-18T10:22:28;25.80;99.90
36444;DHT22;24692;45.642;13.806;2023-09-18T10:27:37;26.00;99.90
36444;DHT22;24692;45.642;13.806;2023-09-18T10:30:07;26.10;99.90
36444;DHT22;24692;45.642;13.806;2023-09-18T10:32:38;26.00;99.90
36444;DHT22;24692;45.642;13.806;2023-09-18T10:35:06;26.20;99.90
36444;DHT22;24692;45.642;13.806;2023-09-18T10:37:34;26.30;99.90
36444;DHT22;24692;45.642;13.806;2023-09-18T10:40:00;26.40;99.90
36444;DHT22;24692;45.642;13.806;2023-09-18T10:42:27;26.50;99.90
36444;DHT22;24692;45.642;13.806;2023-09-18T10:44:53;26.70;99.90
36444;DHT22;24692;45.642;13.806;2023-09-18T10:47:19;26.80;99.90
36444;DHT22;24692;45.642;13.806;2023-09-18T10:49:46;26.80;99.90
36444;DHT22;24692;45.642;13.806;2023-09-18T10:52:12;26.80;99.90
36444;DHT22;24692;45.642;13.806;2023-09-18T10:54:38;26.90;99.90
36444;DHT22;24692;45.642;13.806;2023-09-18T10:57:05;27.20;99.90
36444;DHT22;24692;45.642;13.806;2023-09-18T10:59:31;27.60;99.90
36444;DHT22;24692;45.642;13.806;2023-09-18T11:02:03;27.70;99.90
36444;DHT22;24692;45.642;13.806;2023-09-18T11:04:31;27.70;99.90
36444;DHT22;24692;45.642;13.806;2023-09-18T11:07:03;27.30;99.90
36444;DHT22;24692;45.642;13.806;2023-09-18T11:09:40;27.00;99.90
36444;DHT22;24692;45.642;13.806;2023-09-18T11:12:06;26.60;99.90
36444;DHT22;24692;45.642;13.806;2023-09-18T11:17:39;26.20;99.90
36444;DHT22;24692;45.642;13.806;2023-09-18T11:25:39;26.50;99.90
36444;DHT22;24692;45.642;13.806;2023-09-18T11:28:23;26.80;99.90
36444;DHT22;24692;45.642;13.806;2023-09-18T11:30:59;26.40;99.90
36444;DHT22;24692;45.642;13.806;2023-09-18T11:33:39;26.40;99.90
36444;DHT22;24692;45.642;13.806;2023-09-18T11:36:07;26.10;99.90
36444;DHT22;24692;45.642;13.806;2023-09-18T11:38:35;26.00;99.90
36444;DHT22;24692;45.642;13.806;2023-09-18T11:41:20;26.00;99.90
36444;DHT22;24692;45.642;13.806;2023-09-18T11:43:46;26.10;99.90
36444;DHT22;24692;45.642;13.806;2023-09-18T11:46:18;26.10;99.90
36444;DHT22;24692;45.642;13.806;2023-09-18T11:48:46;25.80;99.90
36444;DHT22;24692;45.642;13.806;2023-09-18T11:51:12;25.70;99.90
36444;DHT22;24692;45.642;13.806;2023-09-18T11:53:40;25.40;99.90
36444;DHT22;24692;45.642;13.806;2023-09-18T11:56:11;25.20;99.90
36444;DHT22;24692;45.642;13.806;2023-09-18T11:58:51;25.10;99.90
36444;DHT22;24692;45.642;13.806;2023-09-18T12:01:21;25.20;99.90
36444;DHT22;24692;45.642;13.806;2023-09-18T12:03:55;25.10;99.90
36444;DHT22;24692;45.642;13.806;2023-09-18T12:06:25;25.10;99.90
36444;DHT22;24692;45.642;13.806;2023-09-18T12:08:52;24.90;99.90
36444;DHT22;24692;45.642;13.806;2023-09-18T12:11:19;24.80;99.90
36444;DHT22;24692;45.642;13.806;2023-09-18T12:13:55;24.80;99.90
36444;DHT22;24692;45.642;13.806;2023-09-18T12:16:21;24.70;99.90
36444;DHT22;24692;45.642;13.806;2023-09-18T12:18:49;24.70;99.90
36444;DHT22;24692;45.642;13.806;2023-09-18T12:21:16;24.70;99.90
36444;DHT22;24692;45.642;13.806;2023-09-18T12:23:45;24.90;99.90
36444;DHT22;24692;45.642;13.806;2023-09-18T12:26:13;25.10;99.90
36444;DHT22;24692;45.642;13.806;2023-09-18T12:28:41;25.10;99.90
36444;DHT22;24692;45.642;13.806;2023-09-18T12:31:15;25.40;99.90
36444;DHT22;24692;45.642;13.806;2023-09-18T12:33:42;26.00;99.90
36444;DHT22;24692;45.642;13.806;2023-09-18T12:36:18;26.10;99.90
36444;DHT22;24692;45.642;13.806;2023-09-18T12:38:45;26.30;99.90
36444;DHT22;24692;45.642;13.806;2023-09-18T12:41:20;26.20;99.90
36444;DHT22;24692;45.642;13.806;2023-09-18T12:43:46;25.80;99.90
36444;DHT22;24692;45.642;13.806;2023-09-18T12:46:12;25.60;99.90
36444;DHT22;24692;45.642;13.806;2023-09-18T12:48:44;25.40;99.90
36444;DHT22;24692;45.642;13.806;2023-09-18T12:51:13;25.30;99.90
36444;DHT22;24692;45.642;13.806;2023-09-18T12:53:40;25.20;99.90
36444;DHT22;24692;45.642;13.806;2023-09-18T12:56:13;25.30;99.90
36444;DHT22;24692;45.642;13.806;2023-09-18T12:58:40;25.30;99.90
36444;DHT22;24692;45.642;13.806;2023-09-18T13:01:07;25.30;99.90
36444;DHT22;24692;45.642;13.806;2023-09-18T13:03:35;25.40;99.90
36444;DHT22;24692;45.642;13.806;2023-09-18T13:06:17;25.40;99.90
36444;DHT22;24692;45.642;13.806;2023-09-18T13:08:43;25.50;99.90
36444;DHT22;24692;45.642;13.806;2023-09-18T13:11:09;25.50;99.90
36444;DHT22;24692;45.642;13.806;2023-09-18T13:13:37;25.40;99.90
36444;DHT22;24692;45.642;13.806;2023-09-18T13:16:07;25.60;99.90
36444;DHT22;24692;45.642;13.806;2023-09-18T13:18:34;25.80;99.90
36444;DHT22;24692;45.642;13.806;2023-09-18T13:21:08;26.00;99.90
36444;DHT22;24692;45.642;13.806;2023-09-18T13:23:35;26.00;99.90
36444;DHT22;24692;45.642;13.806;2023-09-18T13:26:02;26.00;99.90
36444;DHT22;24692;45.642;13.806;2023-09-18T13:28:28;26.00;99.90
36444;DHT22;24692;45.642;13.806;2023-09-18T13:30:56;26.10;99.90
36444;DHT22;24692;45.642;13.806;2023-09-18T13:33:22;26.30;99.90
36444;DHT22;24692;45.642;13.806;2023-09-18T13:35:49;26.40;99.90
36444;DHT22;24692;45.642;13.806;2023-09-18T13:38:15;26.10;99.90
36444;DHT22;24692;45.642;13.806;2023-09-18T13:40:41;25.90;99.90
36444;DHT22;24692;45.642;13.806;2023-09-18T13:43:09;25.90;99.90
36444;DHT22;24692;45.642;13.806;2023-09-18T13:45:35;25.80;99.90
36444;DHT22;24692;45.642;13.806;2023-09-18T13:48:02;25.70;99.90
36444;DHT22;24692;45.642;13.806;2023-09-18T13:50:27;25.60;99.90
36444;DHT22;24692;45.642;13.806;2023-09-18T13:52:53;25.60;99.90
36444;DHT22;24692;45.642;13.806;2023-09-18T13:55:19;25.70;99.90
36444;DHT22;24692;45.642;13.806;2023-09-18T13:57:45;25.70;99.90
36444;DHT22;24692;45.642;13.806;2023-09-18T14:00:11;25.70;99.90
36444;DHT22;24692;45.642;13.806;2023-09-18T14:02:40;25.80;99.90
36444;DHT22;24692;45.642;13.806;2023-09-18T14:05:06;25.80;99.90
36444;DHT22;24692;45.642;13.806;2023-09-18T14:07:32;25.70;99.90
36444;DHT22;24692;45.642;13.806;2023-09-18T14:09:58;25.70;99.90
36444;DHT22;24692;45.642;13.806;2023-09-18T14:12:24;25.40;99.90
36444;DHT22;24692;45.642;13.806;2023-09-18T14:14:50;25.40;99.90
36444;DHT22;24692;45.642;13.806;2023-09-18T14:17:16;25.30;99.90
36444;DHT22;24692;45.642;13.806;2023-09-18T14:19:43;25.20;99.90
36444;DHT22;24692;45.642;13.806;2023-09-18T14:22:10;25.20;99.90
36444;DHT22;24692;45.642;13.806;2023-09-18T14:24:35;25.30;99.90
36444;DHT22;24692;45.642;13.806;2023-09-18T14:27:02;25.40;99.90
36444;DHT22;24692;45.642;13.806;2023-09-18T14:29:28;25.30;99.90
36444;DHT22;24692;45.642;13.806;2023-09-18T14:31:56;25.40;99.90
36444;DHT22;24692;45.642;13.806;2023-09-18T14:34:21;25.40;99.90
36444;DHT22;24692;45.642;13.806;2023-09-18T14:36:47;25.40;99.90
36444;DHT22;24692;45.642;13.806;2023-09-18T14:39:13;25.30;99.90
36444;DHT22;24692;45.642;13.806;2023-09-18T14:41:39;25.10;99.90
36444;DHT22;24692;45.642;13.806;2023-09-18T14:44:07;25.00;99.90
36444;DHT22;24692;45.642;13.806;2023-09-18T14:46:34;25.10;99.90
36444;DHT22;24692;45.642;13.806;2023-09-18T14:49:01;24.80;99.90
36444;DHT22;24692;45.642;13.806;2023-09-18T14:51:27;24.70;99.90
36444;DHT22;24692;45.642;13.806;2023-09-18T14:53:59;24.70;99.90
36444;DHT22;24692;45.642;13.806;2023-09-18T14:56:25;24.70;99.90
36444;DHT22;24692;45.642;13.806;2023-09-18T14:58:51;24.80;99.90
36444;DHT22;24692;45.642;13.806;2023-09-18T15:01:21;25.10;99.90
36444;DHT22;24692;45.642;13.806;2023-09-18T15:03:47;25.50;99.90
36444;DHT22;24692;45.642;13.806;2023-09-18T15:06:16;26.20;99.90
36444;DHT22;24692;45.642;13.806;2023-09-18T15:08:41;26.90;99.90
36444;DHT22;24692;45.642;13.806;2023-09-18T15:11:07;27.10;99.90
36444;DHT22;24692;45.642;13.806;2023-09-18T15:13:34;26.80;99.90
36444;DHT22;24692;45.642;13.806;2023-09-18T15:16:01;26.60;99.90
36444;DHT22;24692;45.642;13.806;2023-09-18T15:18:27;26.00;99.90
36444;DHT22;24692;45.642;13.806;2023-09-18T15:20:53;25.80;99.90
36444;DHT22;24692;45.642;13.806;2023-09-18T15:23:23;25.70;99.90
36444;DHT22;24692;45.642;13.806;2023-09-18T15:25:52;25.50;99.90
36444;DHT22;24692;45.642;13.806;2023-09-18T15:28:25;25.40;99.90
36444;DHT22;24692;45.642;13.806;2023-09-18T15:30:54;25.30;99.90
36444;DHT22;24692;45.642;13.806;2023-09-18T15:33:20;25.10;99.90